createdAt,value
2023-04-10T00:01:12.361Z,53.24
2023-04-10T00:03:39.811Z,53.11
2023-04-10T00:06:07.943Z,53.27
2023-04-10T00:08:35.280Z,53.15
2023-04-10T00:11:02.700Z,53.34
2023-04-10T00:13:30.830Z,53.54
2023-04-10T00:15:58.755Z,53.84
2023-04-10T00:18:26.103Z,52.95
2023-04-10T00:20:53.418Z,53.39
2023-04-10T00:23:20.738Z,53.71
2023-04-10T00:25:48.730Z,53.62
2023-04-10T00:28:17.540Z,54.11
2023-04-10T00:30:44.880Z,53.68
2023-04-10T00:33:12.253Z,53.57
2023-04-10T00:35:39.678Z,53.49
2023-04-10T00:38:07.047Z,53.78
2023-04-10T00:40:34.462Z,53.98
2023-04-10T00:43:02.029Z,54.07
2023-04-10T00:45:31.081Z,54.23
2023-04-10T00:47:58.512Z,54.72
2023-04-10T00:50:25.938Z,54.22
2023-04-10T00:52:53.813Z,54.83
2023-04-10T00:55:22.085Z,54.72
2023-04-10T00:57:49.351Z,55.27
2023-04-10T01:00:18.554Z,55.16
2023-04-10T01:02:48.838Z,54.94
2023-04-10T01:05:17.900Z,55.14
2023-04-10T01:08:07.750Z,55.99
2023-04-10T01:10:52.213Z,55.56
2023-04-10T01:13:28.254Z,55.49
2023-04-10T01:16:02.858Z,55.92
2023-04-10T01:18:53.457Z,55.96
2023-04-10T01:21:22.864Z,56.08
2023-04-10T01:24:47.335Z,55.82
2023-04-10T01:27:52.003Z,56.48
2023-04-10T01:30:22.372Z,56.17
2023-04-10T01:32:55.001Z,56.23
2023-04-10T01:35:23.705Z,56.43
2023-04-10T01:37:52.226Z,56.67
2023-04-10T01:40:22.049Z,57.51
2023-04-10T01:42:54.919Z,56.98
2023-04-10T01:45:29.261Z,57.54
2023-04-10T01:47:56.854Z,57.22
2023-04-10T01:50:28.165Z,57.01
2023-04-10T01:52:57.797Z,57.75
2023-04-10T01:55:28.108Z,57.64
2023-04-10T01:58:01.782Z,57.64
2023-04-10T02:00:29.301Z,58.09
2023-04-10T02:02:58.757Z,58.11
2023-04-10T02:05:36.021Z,58.45
2023-04-10T02:08:15.744Z,58.21
2023-04-10T02:10:54.948Z,58.79
2023-04-10T02:13:28.426Z,57.94
2023-04-10T02:16:00.382Z,58.04
2023-04-10T02:18:29.278Z,58.10
2023-04-10T02:20:56.695Z,58.45
2023-04-10T02:23:24.332Z,58.59
2023-04-10T02:25:51.876Z,58.66
2023-04-10T02:28:19.180Z,58.56
2023-04-10T02:30:46.444Z,58.86
2023-04-10T02:33:13.911Z,58.95
2023-04-10T02:35:41.268Z,58.71
2023-04-10T02:38:09.408Z,59.24
2023-04-10T02:40:38.256Z,58.86
2023-04-10T02:43:13.690Z,59.21
2023-04-10T02:45:42.054Z,59.10
2023-04-10T02:48:11.821Z,59.43
2023-04-10T02:50:39.251Z,58.65
2023-04-10T02:53:06.542Z,58.53
2023-04-10T02:55:33.865Z,58.78
2023-04-10T02:58:01.312Z,59.43
2023-04-10T03:00:29.296Z,59.01
2023-04-10T03:03:11.038Z,58.66
2023-04-10T03:05:49.808Z,58.99
2023-04-10T03:08:21.471Z,59.43
2023-04-10T03:10:49.022Z,59.19
2023-04-10T03:13:16.982Z,58.59
2023-04-10T03:15:44.362Z,58.68
2023-04-10T03:18:11.740Z,58.59
2023-04-10T03:20:42.104Z,58.51
2023-04-10T03:23:11.251Z,58.83
2023-04-10T03:25:38.554Z,58.88
2023-04-10T03:28:07.812Z,58.48
2023-04-10T03:30:37.434Z,58.39
2023-04-10T03:33:05.022Z,58.59
2023-04-10T03:35:32.420Z,58.36
2023-04-10T03:38:00.580Z,58.53
2023-04-10T03:40:28.177Z,58.70
2023-04-10T03:42:56.075Z,58.38
2023-04-10T03:45:24.148Z,58.42
2023-04-10T03:47:52.796Z,58.65
2023-04-10T03:50:21.218Z,58.37
2023-04-10T03:52:56.674Z,58.05
2023-04-10T03:55:25.887Z,57.86
2023-04-10T03:57:53.971Z,57.92
2023-04-10T04:00:25.508Z,58.36
2023-04-10T04:03:03.220Z,57.99
2023-04-10T04:05:49.265Z,57.99
2023-04-10T04:08:25.076Z,58.56
2023-04-10T04:11:15.567Z,58.42
2023-04-10T04:13:55.342Z,58.72
2023-04-10T04:16:49.314Z,58.48
2023-04-10T04:19:35.021Z,58.97
2023-04-10T04:22:28.804Z,59.32
2023-04-10T04:25:09.055Z,59.32
2023-04-10T04:27:56.652Z,59.12
2023-04-10T04:30:44.386Z,59.88
2023-04-10T04:33:21.481Z,59.42
2023-04-10T04:35:51.606Z,59.54
2023-04-10T04:38:29.585Z,59.48
2023-04-10T04:41:09.234Z,58.81
2023-04-10T04:43:39.414Z,58.77
2023-04-10T04:46:26.132Z,58.75
2023-04-10T04:49:11.897Z,58.60
2023-04-10T04:51:48.966Z,59.00
2023-04-10T04:54:45.661Z,59.82
2023-04-10T04:57:22.035Z,59.84
2023-04-10T04:59:57.176Z,59.54
2023-04-10T05:02:43.681Z,59.79
2023-04-10T05:05:30.005Z,60.00
2023-04-10T05:08:16.340Z,59.87
2023-04-10T05:11:20.910Z,59.37
2023-04-10T05:14:14.153Z,58.83
2023-04-10T05:16:48.290Z,58.54
2023-04-10T05:19:23.269Z,58.77
2023-04-10T05:22:09.339Z,58.69
2023-04-10T05:24:59.704Z,58.34
2023-04-10T05:27:39.166Z,58.03
2023-04-10T05:30:26.742Z,57.72
2023-04-10T05:33:12.753Z,57.94
2023-04-10T05:36:08.518Z,57.52
2023-04-10T05:38:54.874Z,56.93
2023-04-10T05:41:41.011Z,56.83
2023-04-10T05:44:29.182Z,57.27
2023-04-10T05:47:02.002Z,56.93
2023-04-10T05:49:55.604Z,56.68
2023-04-10T05:52:46.956Z,56.14
2023-04-10T05:55:51.603Z,56.12
2023-04-10T05:58:37.817Z,55.29
2023-04-10T06:01:18.188Z,55.45
2023-04-10T06:03:52.613Z,55.38
2023-04-10T06:06:22.067Z,54.94
2023-04-10T06:08:50.248Z,54.43
2023-04-10T06:11:17.717Z,54.67
2023-04-10T06:13:50.619Z,53.55
2023-04-10T06:16:21.687Z,53.23
2023-04-10T06:18:51.383Z,52.93
2023-04-10T06:21:19.035Z,52.35
2023-04-10T06:23:47.367Z,51.24
2023-04-10T06:26:14.791Z,51.39
2023-04-10T06:28:42.563Z,51.42
2023-04-10T06:31:14.320Z,51.16
2023-04-10T06:33:42.273Z,50.54
2023-04-10T06:36:11.055Z,50.30
2023-04-10T06:38:53.955Z,49.84
2023-04-10T06:41:24.093Z,48.99
2023-04-10T06:43:55.348Z,48.33
2023-04-10T06:46:24.029Z,47.89
2023-04-10T06:48:51.552Z,47.09
2023-04-10T06:51:19.053Z,46.17
2023-04-10T06:53:46.564Z,46.15
2023-04-10T06:56:13.958Z,45.95
2023-04-10T06:58:41.572Z,46.19
2023-04-10T07:01:08.994Z,45.27
2023-04-10T07:03:36.962Z,43.84
2023-04-10T07:06:04.842Z,44.14
2023-04-10T07:08:32.371Z,44.68
2023-04-10T07:10:59.797Z,42.75
2023-04-10T07:13:27.176Z,43.25
2023-04-10T07:18:41.454Z,42.75
2023-04-10T07:21:11.718Z,42.48
2023-04-10T07:23:41.097Z,42.35
2023-04-10T07:26:08.518Z,41.95
2023-04-10T07:28:37.011Z,40.86
2023-04-10T07:31:04.690Z,40.91
2023-04-10T07:33:32.126Z,41.20
2023-04-10T07:36:02.937Z,41.04
2023-04-10T07:38:30.954Z,40.88
2023-04-10T07:40:58.712Z,39.42
2023-04-10T07:43:26.276Z,38.90
2023-04-10T07:45:56.037Z,39.26
2023-04-10T07:48:23.806Z,38.66
2023-04-10T07:50:51.445Z,37.82
2023-04-10T07:53:19.493Z,37.33
2023-04-10T07:55:49.895Z,38.26
2023-04-10T07:58:17.258Z,38.11
2023-04-10T08:00:44.704Z,37.44
2023-04-10T08:03:13.822Z,38.04
2023-04-10T08:05:41.634Z,36.79
2023-04-10T08:08:09.057Z,37.21
2023-04-10T08:10:39.628Z,36.14
2023-04-10T08:13:07.012Z,37.07
2023-04-10T08:15:34.888Z,36.89
2023-04-10T08:18:02.470Z,36.24
2023-04-10T08:20:30.504Z,36.06
2023-04-10T08:23:03.201Z,35.47
2023-04-10T08:25:40.343Z,35.12
2023-04-10T08:28:10.431Z,35.22
2023-04-10T08:30:38.830Z,34.01
2023-04-10T08:33:06.215Z,35.19
2023-04-10T08:35:33.615Z,35.39
2023-04-10T08:38:12.687Z,34.70
2023-04-10T08:40:41.406Z,35.15
2023-04-10T08:43:08.700Z,35.75
2023-04-10T08:45:36.152Z,35.62
2023-04-10T08:48:06.631Z,34.97
2023-04-10T08:50:38.147Z,34.36
2023-04-10T08:53:15.004Z,34.63
2023-04-10T08:55:44.269Z,34.85
2023-04-10T08:58:17.197Z,34.99
2023-04-10T09:00:46.859Z,34.65
2023-04-10T09:03:16.507Z,33.65
2023-04-10T09:05:45.164Z,33.52
2023-04-10T09:08:15.619Z,33.66
2023-04-10T09:10:43.005Z,33.85
2023-04-10T09:13:10.473Z,33.69
2023-04-10T09:15:57.994Z,33.55
2023-04-10T09:18:41.748Z,33.33
2023-04-10T09:21:14.071Z,33.67
2023-04-10T09:23:43.476Z,32.39
2023-04-10T09:26:30.528Z,32.37
2023-04-10T09:28:58.820Z,31.62
2023-04-10T09:31:30.775Z,32.24
2023-04-10T09:34:08.001Z,31.26
2023-04-10T09:36:37.135Z,31.66
2023-04-10T09:39:06.640Z,32.59
2023-04-10T09:41:34.205Z,32.48
2023-04-10T09:44:14.600Z,32.03
2023-04-10T09:46:42.435Z,32.48
2023-04-10T09:49:09.742Z,32.76
2023-04-10T09:51:37.393Z,31.27
2023-04-10T09:54:06.160Z,31.33
2023-04-10T09:56:38.652Z,31.87
2023-04-10T09:59:07.950Z,32.41
2023-04-10T10:01:40.033Z,32.60
2023-04-10T10:04:10.206Z,32.67
2023-04-10T10:06:39.371Z,32.60
2023-04-10T10:09:07.150Z,32.33
2023-04-10T10:11:36.515Z,32.33
2023-04-10T10:14:12.451Z,32.74
2023-04-10T10:16:55.578Z,31.98
2023-04-10T10:19:28.575Z,32.43
2023-04-10T10:21:56.455Z,32.75
2023-04-10T10:24:26.696Z,31.44
2023-04-10T10:26:56.027Z,32.57
2023-04-10T10:29:25.092Z,32.16
2023-04-10T10:31:53.446Z,31.30
2023-04-10T10:34:22.469Z,32.98
2023-04-10T10:36:50.738Z,31.88
2023-04-10T10:39:37.276Z,31.54
2023-04-10T10:42:22.552Z,30.93
2023-04-10T10:45:01.877Z,31.22
2023-04-10T10:47:31.829Z,31.15
2023-04-10T10:49:59.428Z,31.41
2023-04-10T10:52:47.736Z,32.21
2023-04-10T10:55:35.997Z,30.78
2023-04-10T10:58:06.061Z,30.91
2023-04-10T11:01:09.169Z,29.83
2023-04-10T11:03:37.994Z,30.52
2023-04-10T11:06:13.036Z,30.65
2023-04-10T11:08:46.113Z,29.80
2023-04-10T11:11:18.858Z,29.23
2023-04-10T11:13:58.198Z,29.96
2023-04-10T11:16:36.109Z,29.92
2023-04-10T11:19:16.429Z,30.14
2023-04-10T11:22:10.058Z,30.86
2023-04-10T11:24:58.136Z,30.63
2023-04-10T11:27:47.083Z,30.87
2023-04-10T11:30:28.350Z,30.79
2023-04-10T11:32:57.597Z,30.75
2023-04-10T11:35:26.950Z,30.54
2023-04-10T11:38:16.374Z,30.78
2023-04-10T11:40:58.926Z,30.99
2023-04-10T11:43:26.778Z,31.19
2023-04-10T11:46:08.837Z,31.49
2023-04-10T11:48:37.828Z,31.35
2023-04-10T11:51:13.515Z,31.37
2023-04-10T11:53:41.967Z,31.37
2023-04-10T11:56:21.398Z,31.33
2023-04-10T11:58:53.152Z,31.70
2023-04-10T12:01:22.910Z,31.64
2023-04-10T12:03:50.908Z,31.64
2023-04-10T12:06:20.090Z,31.84
2023-04-10T12:08:52.788Z,31.52
2023-04-10T12:11:22.744Z,31.11
2023-04-10T12:13:57.899Z,31.34
2023-04-10T12:16:26.877Z,31.18
2023-04-10T12:18:54.742Z,31.46
2023-04-10T12:21:22.389Z,31.01
2023-04-10T12:23:49.794Z,31.21
2023-04-10T12:26:19.063Z,31.43
2023-04-10T12:28:58.133Z,31.81
2023-04-10T12:31:35.344Z,30.92
2023-04-10T12:34:05.865Z,31.26
2023-04-10T12:36:35.500Z,31.50
2023-04-10T12:39:04.939Z,31.21
2023-04-10T12:41:34.455Z,31.59
2023-04-10T12:44:13.780Z,31.91
2023-04-10T12:46:42.550Z,31.53
2023-04-10T12:49:15.423Z,31.20
2023-04-10T12:51:53.452Z,30.79
2023-04-10T12:54:31.885Z,31.22
2023-04-10T12:57:00.120Z,31.30
2023-04-10T12:59:30.793Z,31.05
2023-04-10T13:01:58.366Z,31.66
2023-04-10T13:04:25.991Z,30.96
2023-04-10T13:06:53.655Z,30.86
2023-04-10T13:09:22.154Z,30.76
2023-04-10T13:11:51.572Z,30.89
2023-04-10T13:14:19.990Z,29.92
2023-04-10T13:16:47.379Z,29.83
2023-04-10T13:19:14.702Z,30.33
2023-04-10T13:21:44.254Z,29.92
2023-04-10T13:24:11.537Z,30.38
2023-04-10T13:26:38.777Z,30.35
2023-04-10T13:29:06.389Z,29.86
2023-04-10T13:31:33.729Z,30.28
2023-04-10T13:34:01.544Z,29.92
2023-04-10T13:36:28.850Z,29.81
2023-04-10T13:38:56.641Z,29.64
2023-04-10T13:41:24.378Z,29.85
2023-04-10T13:43:53.510Z,30.07
2023-04-10T13:46:22.124Z,29.88
2023-04-10T13:48:49.634Z,29.85
2023-04-10T13:51:18.762Z,29.90
2023-04-10T13:53:47.264Z,30.08
2023-04-10T13:56:15.727Z,30.14
2023-04-10T13:58:43.004Z,29.83
2023-04-10T14:01:10.410Z,29.54
2023-04-10T14:03:39.300Z,29.91
2023-04-10T14:06:07.265Z,29.97
2023-04-10T14:08:34.724Z,29.71
2023-04-10T14:11:02.795Z,29.74
2023-04-10T14:13:31.245Z,29.38
2023-04-10T14:15:58.829Z,29.25
2023-04-10T14:18:26.223Z,29.33
2023-04-10T14:20:53.499Z,29.20
2023-04-10T14:23:22.590Z,29.43
2023-04-10T14:28:35.469Z,29.47
2023-04-10T14:31:02.946Z,29.38
2023-04-10T14:33:30.343Z,29.19
2023-04-10T14:35:57.681Z,29.22
2023-04-10T14:38:25.104Z,29.42
2023-04-10T14:40:54.104Z,29.52
2023-04-10T14:43:21.389Z,29.80
2023-04-10T14:46:07.694Z,29.94
2023-04-10T14:48:53.359Z,30.17
2023-04-10T14:51:20.833Z,30.51
2023-04-10T14:54:08.080Z,30.66
2023-04-10T14:56:54.122Z,30.96
2023-04-10T14:59:39.799Z,30.90
2023-04-10T15:02:25.660Z,31.24
2023-04-10T15:05:11.777Z,31.00
2023-04-10T15:07:57.808Z,31.28
2023-04-10T15:10:25.743Z,31.45
2023-04-10T15:12:53.110Z,31.45
2023-04-10T15:15:20.663Z,31.60
2023-04-10T15:17:48.061Z,31.61
2023-04-10T15:20:15.495Z,31.87
2023-04-10T15:22:45.801Z,31.95
2023-04-10T15:25:13.198Z,31.98
2023-04-10T15:27:40.636Z,31.89
2023-04-10T15:30:08.414Z,32.00
2023-04-10T15:32:37.181Z,31.25
2023-04-10T15:35:05.070Z,31.53
2023-04-10T15:37:32.439Z,31.29
2023-04-10T15:39:59.752Z,31.33
2023-04-10T15:42:28.265Z,31.47
2023-04-10T15:44:55.629Z,31.21
2023-04-10T15:47:23.062Z,31.13
2023-04-10T15:49:50.419Z,31.03
2023-04-10T15:52:17.763Z,31.15
2023-04-10T15:54:45.076Z,31.31
2023-04-10T15:57:12.473Z,31.52
2023-04-10T15:59:39.759Z,31.27
2023-04-10T16:02:07.095Z,31.12
2023-04-10T16:04:35.574Z,31.67
2023-04-10T16:07:03.025Z,31.75
2023-04-10T16:09:30.986Z,31.74
2023-04-10T16:11:58.801Z,32.28
2023-04-10T16:14:26.121Z,31.88
2023-04-10T16:16:53.507Z,32.43
2023-04-10T16:19:21.097Z,32.73
2023-04-10T16:21:48.455Z,33.04
2023-04-10T16:24:15.827Z,32.96
2023-04-10T16:26:43.116Z,33.33
2023-04-10T16:29:10.368Z,33.95
2023-04-10T16:31:37.850Z,33.99
2023-04-10T16:34:05.173Z,34.49
2023-04-10T16:36:32.431Z,34.93
2023-04-10T16:38:59.755Z,34.95
2023-04-10T16:41:27.099Z,35.97
2023-04-10T16:43:54.505Z,36.06
2023-04-10T16:46:21.958Z,36.00
2023-04-10T16:48:49.394Z,36.66
2023-04-10T16:51:18.049Z,37.15
2023-04-10T16:53:45.501Z,37.70
2023-04-10T16:56:12.927Z,38.48
2023-04-10T16:58:42.225Z,39.37
2023-04-10T17:01:17.040Z,39.92
2023-04-10T17:03:45.764Z,40.03
2023-04-10T17:06:13.425Z,39.77
2023-04-10T17:09:17.814Z,40.22
2023-04-10T17:11:45.120Z,40.51
2023-04-10T17:14:13.689Z,40.88
2023-04-10T17:16:41.252Z,41.08
2023-04-10T17:19:08.628Z,41.45
2023-04-10T17:21:36.146Z,41.67
2023-04-10T17:24:03.789Z,41.90
2023-04-10T17:26:31.572Z,42.21
2023-04-10T17:28:58.880Z,42.15
2023-04-10T17:31:26.310Z,42.19
2023-04-10T17:33:53.769Z,42.39
2023-04-10T17:36:21.166Z,42.15
2023-04-10T17:38:53.692Z,42.36
2023-04-10T17:41:23.755Z,42.80
2023-04-10T17:43:51.290Z,42.18
2023-04-10T17:46:18.713Z,42.59
2023-04-10T17:48:46.143Z,42.48
2023-04-10T17:51:13.647Z,42.86
2023-04-10T17:53:41.060Z,42.92
2023-04-10T17:56:08.628Z,43.33
2023-04-10T17:58:36.055Z,43.46
2023-04-10T18:01:03.494Z,43.58
2023-04-10T18:03:31.005Z,43.71
2023-04-10T18:05:59.208Z,43.89
2023-04-10T18:08:26.758Z,43.84
2023-04-10T18:10:54.037Z,44.02
2023-04-10T18:13:21.299Z,44.34
2023-04-10T18:15:48.696Z,44.27
2023-04-10T18:18:16.188Z,44.63
2023-04-10T18:20:43.557Z,44.46
2023-04-10T18:23:11.027Z,44.64
2023-04-10T18:25:38.302Z,45.02
2023-04-10T18:28:24.124Z,44.46
2023-04-10T18:30:55.156Z,44.57
2023-04-10T18:33:26.323Z,44.56
2023-04-10T18:35:58.993Z,44.09
2023-04-10T18:38:27.165Z,43.94
2023-04-10T18:40:57.763Z,43.84
2023-04-10T18:43:25.842Z,43.54
2023-04-10T18:45:54.659Z,43.46
2023-04-10T18:48:22.294Z,43.84
2023-04-10T18:50:53.493Z,43.83
2023-04-10T18:53:22.045Z,43.75
2023-04-10T18:55:53.752Z,43.70
2023-04-10T18:58:22.210Z,43.74
2023-04-10T19:00:49.669Z,43.56
2023-04-10T19:03:17.196Z,43.45
2023-04-10T19:05:44.774Z,43.55
2023-04-10T19:08:14.744Z,44.17
2023-04-10T19:10:42.988Z,44.12
2023-04-10T19:13:12.224Z,43.70
2023-04-10T19:15:44.214Z,43.94
2023-04-10T19:18:13.159Z,43.76
2023-04-10T19:20:50.839Z,43.98
2023-04-10T19:23:19.999Z,44.05
2023-04-10T19:25:51.288Z,43.82
2023-04-10T19:28:18.604Z,43.73
2023-04-10T19:30:46.006Z,43.84
2023-04-10T19:33:13.356Z,43.54
2023-04-10T19:35:40.890Z,43.55
2023-04-10T19:38:08.304Z,43.64
2023-04-10T19:40:36.371Z,43.64
2023-04-10T19:43:03.707Z,43.29
2023-04-10T19:45:32.718Z,43.29
2023-04-10T19:48:00.621Z,43.21
2023-04-10T19:50:31.431Z,43.23
2023-04-10T19:52:59.401Z,43.41
2023-04-10T19:55:27.377Z,43.51
2023-04-10T19:57:55.105Z,43.67
2023-04-10T20:00:22.626Z,43.43
2023-04-10T20:02:50.227Z,43.72
2023-04-10T20:05:17.826Z,43.77
2023-04-10T20:07:45.264Z,44.09
2023-04-10T20:10:12.712Z,43.94
2023-04-10T20:12:40.116Z,44.34
2023-04-10T20:15:08.734Z,44.19
2023-04-10T20:17:36.500Z,44.61
2023-04-10T20:20:04.085Z,44.85
2023-04-10T20:22:32.641Z,44.41
2023-04-10T20:25:00.001Z,44.95
2023-04-10T20:27:27.319Z,44.90
2023-04-10T20:29:54.710Z,44.69
2023-04-10T20:32:22.064Z,45.62
2023-04-10T20:34:49.489Z,44.82
2023-04-10T20:37:22.013Z,46.13
2023-04-10T20:39:49.846Z,45.86
2023-04-10T20:42:17.498Z,45.78
2023-04-10T20:44:44.883Z,45.76
2023-04-10T20:47:12.690Z,45.91
2023-04-10T20:49:40.120Z,46.25
2023-04-10T20:52:07.622Z,46.27
2023-04-10T20:54:34.986Z,46.38
2023-04-10T20:57:02.425Z,46.90
2023-04-10T20:59:30.002Z,46.68
2023-04-10T21:01:58.685Z,47.32
2023-04-10T21:04:27.306Z,46.93
2023-04-10T21:06:54.661Z,47.44
2023-04-10T21:09:21.938Z,47.28
2023-04-10T21:11:49.359Z,48.15
2023-04-10T21:14:16.646Z,48.03
2023-04-10T21:16:46.103Z,48.12
2023-04-10T21:19:13.704Z,48.19
2023-04-10T21:21:41.049Z,48.63
2023-04-10T21:24:08.507Z,48.59
2023-04-10T21:26:35.936Z,49.38
2023-04-10T21:29:03.310Z,49.43
2023-04-10T21:31:30.752Z,49.23
2023-04-10T21:33:58.059Z,49.54
2023-04-10T21:36:26.710Z,49.85
2023-04-10T21:38:54.361Z,49.62
2023-04-10T21:41:22.048Z,50.01
2023-04-10T21:43:49.552Z,50.58
2023-04-10T21:46:16.986Z,50.04
2023-04-10T21:48:44.462Z,50.78
2023-04-10T21:51:11.872Z,50.74
2023-04-10T21:53:39.295Z,50.60
2023-04-10T21:56:07.108Z,51.15
2023-04-10T21:58:34.577Z,51.28
2023-04-10T22:01:02.108Z,51.20
2023-04-10T22:03:29.743Z,51.26
2023-04-10T22:05:57.213Z,51.50
2023-04-10T22:08:24.770Z,51.62
2023-04-10T22:10:52.682Z,51.28
2023-04-10T22:13:30.475Z,51.06
2023-04-10T22:16:02.385Z,51.58
2023-04-10T22:18:30.234Z,51.49
2023-04-10T22:20:57.639Z,51.77
2023-04-10T22:23:25.090Z,51.69
2023-04-10T22:25:52.567Z,51.74
2023-04-10T22:28:19.858Z,52.40
2023-04-10T22:30:47.285Z,51.93
2023-04-10T22:33:15.769Z,52.09
2023-04-10T22:35:43.094Z,52.28
2023-04-10T22:38:10.562Z,52.30
2023-04-10T22:40:37.933Z,52.20
2023-04-10T22:43:05.341Z,52.03
2023-04-10T22:45:32.650Z,52.23
2023-04-10T22:47:59.968Z,52.49
2023-04-10T22:50:27.415Z,52.34
2023-04-10T22:52:54.764Z,52.39
2023-04-10T22:55:22.148Z,52.45
2023-04-10T22:57:52.271Z,52.94
2023-04-10T23:00:19.734Z,53.12
2023-04-10T23:02:47.326Z,52.96
2023-04-10T23:05:14.796Z,53.73
2023-04-10T23:07:42.138Z,53.47
2023-04-10T23:10:09.652Z,53.68
2023-04-10T23:12:37.996Z,53.99
2023-04-10T23:15:07.363Z,53.71
2023-04-10T23:17:53.426Z,54.30
2023-04-10T23:20:20.966Z,54.23
2023-04-10T23:22:48.345Z,54.29
2023-04-10T23:25:16.123Z,54.78
2023-04-10T23:27:43.644Z,55.02
2023-04-10T23:30:11.197Z,54.51
2023-04-10T23:32:38.700Z,54.15
2023-04-10T23:35:06.465Z,54.75
2023-04-10T23:37:36.545Z,55.04
2023-04-10T23:40:04.427Z,54.99
2023-04-10T23:42:31.816Z,54.77
2023-04-10T23:44:59.211Z,55.10
2023-04-10T23:47:26.657Z,55.39
2023-04-10T23:49:55.119Z,55.00
2023-04-10T23:52:22.443Z,55.48
2023-04-10T23:54:49.800Z,55.83
2023-04-10T23:57:17.111Z,55.71
2023-04-10T23:59:44.512Z,55.83
